Time;durP1;ratioP1;P1;durP2;ratioP2;P2;SDS_P1;SDS_P2;PMS_P1;PMS_P2;Temp;Humidity;BMP_temperature;BMP_pressure;BME280_temperature;BME280_humidity;BME280_pressure;Samples;Min_cycle;Max_cycle;Signal;HPM_P1;HPM_P2
2023/09/23 00:02:19;;;;;;;6.30;5.73;;;18.40;99.90;;;;;;5054012;28;20542;-83
2023/09/23 00:04:46;;;;;;;9.73;8.13;;;18.40;99.90;;;;;;5043659;28;20996;-82
2023/09/23 00:07:14;;;;;;;8.43;7.50;;;18.40;99.90;;;;;;5049386;28;20801;-81
2023/09/23 00:09:43;;;;;;;7.20;6.30;;;18.30;99.90;;;;;;5048921;28;20555;-84
2023/09/23 00:12:13;;;;;;;14.50;10.40;;;18.40;99.90;;;;;;5051693;28;20556;-80
2023/09/23 00:14:45;;;;;;;5.90;5.30;;;18.30;99.90;;;;;;5047402;28;20463;-80
2023/09/23 00:17:13;;;;;;;5.90;5.30;;;18.30;99.90;;;;;;5053124;28;20471;-80
2023/09/23 00:19:40;;;;;;;4.90;3.73;;;18.30;99.90;;;;;;5050471;28;20550;-79
2023/09/23 00:22:07;;;;;;;6.33;4.23;;;18.20;99.90;;;;;;5051756;28;20470;-80
2023/09/23 00:24:34;;;;;;;5.27;3.67;;;18.20;99.90;;;;;;5047421;28;20543;-82
2023/09/23 00:27:01;;;;;;;4.87;3.00;;;18.20;99.90;;;;;;5038033;28;20591;-80
2023/09/23 00:29:28;;;;;;;3.97;3.43;;;18.20;99.90;;;;;;5044937;28;21040;-83
2023/09/23 00:31:57;;;;;;;3.33;3.10;;;18.20;99.90;;;;;;5033080;28;20977;-83
2023/09/23 00:34:24;;;;;;;3.03;2.83;;;18.20;99.90;;;;;;5050695;28;20475;-84
2023/09/23 00:36:52;;;;;;;3.63;3.33;;;18.20;99.90;;;;;;5052078;28;20521;-79
2023/09/23 00:39:48;;;;;;;4.07;3.30;;;18.20;99.90;;;;;;5032954;28;20550;-80
2023/09/23 00:42:47;;;;;;;3.30;3.00;;;18.10;99.90;;;;;;4939623;29;20478;-83
2023/09/23 00:46:04;;;;;;;3.73;3.37;;;18.10;99.90;;;;;;5067744;22;20538;-80
2023/09/23 00:48:38;;;;;;;2.83;2.60;;;18.10;99.90;;;;;;5071936;28;20816;-84
2023/09/23 00:51:06;;;;;;;2.63;2.43;;;18.00;99.90;;;;;;5076306;28;20522;-80
2023/09/23 00:53:35;;;;;;;3.30;2.67;;;18.00;99.90;;;;;;5061815;28;20473;-80
2023/09/23 00:56:07;;;;;;;3.00;2.70;;;18.00;99.90;;;;;;5068273;28;20450;-83
2023/09/23 00:58:36;;;;;;;2.87;2.60;;;18.00;99.90;;;;;;5078626;28;20473;-83
2023/09/23 01:01:10;;;;;;;3.50;2.93;;;18.00;99.90;;;;;;5074853;28;20525;-83
2023/09/23 01:03:42;;;;;;;3.53;3.23;;;18.00;99.90;;;;;;5074064;28;20957;-79
2023/09/23 01:06:15;;;;;;;3.43;2.80;;;18.00;99.90;;;;;;5075251;28;20466;-79
2023/09/23 01:08:44;;;;;;;3.50;3.20;;;18.00;99.90;;;;;;5072519;28;20546;-82
2023/09/23 01:11:12;;;;;;;3.37;2.80;;;18.00;99.90;;;;;;5076506;28;20480;-81
2023/09/23 01:13:42;;;;;;;2.70;2.50;;;17.90;99.90;;;;;;5072242;28;21181;-82
2023/09/23 01:16:12;;;;;;;5.03;3.27;;;17.90;99.90;;;;;;5073486;28;20478;-82
2023/09/23 01:18:41;;;;;;;3.30;3.00;;;17.80;99.90;;;;;;5077337;28;20637;-82
2023/09/23 01:21:08;;;;;;;2.80;2.60;;;17.80;99.90;;;;;;5072920;28;20466;-79
2023/09/23 01:23:38;;;;;;;2.17;2.03;;;17.80;99.90;;;;;;5078869;28;20606;-79
2023/09/23 01:26:06;;;;;;;3.57;2.20;;;17.80;99.90;;;;;;5075499;28;20472;-81
2023/09/23 01:28:33;;;;;;;2.73;2.47;;;17.80;99.90;;;;;;5065352;28;20611;-80
2023/09/23 01:31:02;;;;;;;2.87;2.60;;;17.80;99.90;;;;;;5080157;28;20465;-79
2023/09/23 01:33:29;;;;;;;2.97;2.77;;;17.80;99.90;;;;;;5070178;28;20467;-79
2023/09/23 01:35:57;;;;;;;3.67;2.97;;;17.80;99.90;;;;;;5072831;28;20502;-79
2023/09/23 01:38:25;;;;;;;2.80;2.20;;;17.80;99.90;;;;;;5071895;28;21011;-79
2023/09/23 01:40:55;;;;;;;2.33;2.13;;;17.80;99.90;;;;;;5074969;28;21023;-80
2023/09/23 01:43:22;;;;;;;3.20;2.90;;;17.80;99.90;;;;;;5077295;28;20461;-82
2023/09/23 01:45:49;;;;;;;3.80;3.50;;;17.80;99.90;;;;;;5065657;28;20462;-79
2023/09/23 01:48:17;;;;;;;2.47;2.27;;;17.80;99.90;;;;;;5079730;28;20462;-79
2023/09/23 01:50:44;;;;;;;3.50;2.67;;;17.80;99.90;;;;;;5076304;28;20468;-79
2023/09/23 01:53:13;;;;;;;2.50;2.30;;;17.80;99.90;;;;;;5083688;28;20477;-79
2023/09/23 01:55:45;;;;;;;2.63;2.00;;;17.80;99.90;;;;;;5084419;28;20981;-80
2023/09/23 01:58:14;;;;;;;2.63;2.43;;;17.80;99.90;;;;;;5083358;28;20454;-81
2023/09/23 02:00:43;;;;;;;5.37;2.20;;;17.80;99.90;;;;;;5084594;28;20522;-81
2023/09/23 02:03:10;;;;;;;2.77;2.57;;;17.70;99.90;;;;;;5075753;28;20458;-79
2023/09/23 02:05:37;;;;;;;2.17;1.97;;;17.70;99.90;;;;;;5075496;28;21257;-81
2023/09/23 02:08:05;;;;;;;2.37;2.17;;;17.70;99.90;;;;;;5075376;28;20541;-81
2023/09/23 02:10:32;;;;;;;2.10;1.93;;;17.70;99.90;;;;;;5076126;28;20466;-79
2023/09/23 02:13:01;;;;;;;2.43;1.97;;;17.70;99.90;;;;;;5064290;28;20513;-81
2023/09/23 02:15:30;;;;;;;2.80;2.50;;;17.70;99.90;;;;;;5075019;28;20539;-80
2023/09/23 02:17:57;;;;;;;3.30;2.00;;;17.70;99.90;;;;;;5066710;28;20466;-79
2023/09/23 02:20:28;;;;;;;3.00;2.53;;;17.70;99.90;;;;;;5076358;28;20967;-79
2023/09/23 02:22:55;;;;;;;3.30;2.40;;;17.70;99.90;;;;;;5074183;28;20545;-82
2023/09/23 02:25:27;;;;;;;2.07;1.87;;;17.70;99.90;;;;;;5058583;28;20502;-80
2023/09/23 02:28:04;;;;;;;2.60;2.40;;;17.60;99.90;;;;;;5036300;28;20520;-80
2023/09/23 02:30:33;;;;;;;2.83;2.47;;;17.70;99.90;;;;;;5074630;28;20474;-83
2023/09/23 02:33:03;;;;;;;2.43;2.20;;;17.70;99.90;;;;;;5071702;28;20467;-81
2023/09/23 02:35:33;;;;;;;3.97;2.83;;;17.60;99.90;;;;;;5043674;28;20481;-82
2023/09/23 02:38:03;;;;;;;3.10;2.90;;;17.60;99.90;;;;;;5074988;28;20462;-82
2023/09/23 02:40:31;;;;;;;2.43;2.20;;;17.60;99.90;;;;;;5074917;28;20466;-82
2023/09/23 02:42:59;;;;;;;3.83;3.53;;;17.60;99.90;;;;;;5074523;28;20462;-79
2023/09/23 02:45:31;;;;;;;4.37;3.20;;;17.60;99.90;;;;;;5074443;28;20883;-79
2023/09/23 02:48:17;;;;;;;7.37;6.53;;;17.60;99.90;;;;;;5061425;28;20540;-82
2023/09/23 02:50:50;;;;;;;8.10;6.20;;;17.60;99.90;;;;;;5074986;28;20466;-82
2023/09/23 02:53:20;;;;;;;4.97;4.20;;;17.60;99.90;;;;;;5055022;28;20512;-81
2023/09/23 02:55:57;;;;;;;4.10;2.93;;;17.50;99.90;;;;;;5037066;28;20480;-81
2023/09/23 02:58:35;;;;;;;5.60;4.10;;;17.40;99.90;;;;;;5045000;28;20466;-81
2023/09/23 03:01:05;;;;;;;5.50;3.73;;;17.30;99.90;;;;;;5043166;28;20820;-81
2023/09/23 03:03:40;;;;;;;7.20;5.20;;;17.30;99.90;;;;;;5055702;28;20474;-78
2023/09/23 03:06:10;;;;;;;5.37;4.87;;;17.30;99.90;;;;;;5071539;28;20471;-79
2023/09/23 03:08:38;;;;;;;2.43;2.23;;;17.20;99.90;;;;;;5074924;28;20478;-79
2023/09/23 03:11:17;;;;;;;3.70;3.30;;;17.20;99.90;;;;;;5074335;28;20960;-79
2023/09/23 03:14:00;;;;;;;3.40;2.90;;;17.20;99.90;;;;;;5063592;28;20489;-81
2023/09/23 03:16:33;;;;;;;8.80;4.87;;;17.20;99.90;;;;;;5043557;28;20462;-82
2023/09/23 03:19:11;;;;;;;651.53;567.00;;;17.10;99.90;;;;;;5063150;28;20963;-84
2023/09/23 03:21:42;;;;;;;438.60;383.47;;;17.30;99.90;;;;;;5062933;28;20522;-83
2023/09/23 03:24:13;;;;;;;527.80;457.30;;;17.60;99.90;;;;;;5052784;28;20489;-86
2023/09/23 03:26:46;;;;;;;411.27;326.37;;;17.90;99.90;;;;;;5061141;28;20477;-86
2023/09/23 03:29:15;;;;;;;290.43;232.80;;;18.30;99.90;;;;;;5072654;28;20557;-84
2023/09/23 03:31:44;;;;;;;126.57;106.67;;;18.60;99.90;;;;;;5073515;28;20537;-86
2023/09/23 03:34:14;;;;;;;214.83;169.47;;;18.90;99.90;;;;;;5074543;28;20545;-84
2023/09/23 03:36:41;;;;;;;187.03;154.63;;;19.20;99.90;;;;;;5077411;28;20483;-84
2023/09/23 03:39:09;;;;;;;127.90;108.83;;;19.40;99.90;;;;;;5074037;28;20470;-84
2023/09/23 03:41:42;;;;;;;68.87;58.40;;;19.70;99.90;;;;;;5070112;28;20470;-86
2023/09/23 03:44:09;;;;;;;6.80;6.13;;;19.80;99.90;;;;;;5072763;28;20553;-86
2023/09/23 03:46:37;;;;;;;2.07;1.87;;;19.90;99.90;;;;;;5071601;28;20467;-85
2023/09/23 03:49:05;;;;;;;2.37;1.77;;;19.80;99.90;;;;;;5073990;28;20466;-85
2023/09/23 03:51:48;;;;;;;1.63;1.53;;;19.70;99.90;;;;;;5071369;28;20474;-83
2023/09/23 03:54:16;;;;;;;2.77;2.27;;;19.50;99.90;;;;;;5072944;28;20513;-84
2023/09/23 03:56:43;;;;;;;1.93;1.30;;;19.20;99.90;;;;;;5073501;28;20571;-84
2023/09/23 03:59:10;;;;;;;1.67;1.27;;;19.10;99.90;;;;;;5073951;28;20466;-84
2023/09/23 04:01:39;;;;;;;1.97;1.77;;;18.90;99.90;;;;;;5061995;28;20864;-84
2023/09/23 04:04:07;;;;;;;3.73;2.93;;;18.70;99.90;;;;;;5073792;28;20951;-84
2023/09/23 04:06:34;;;;;;;2.33;1.97;;;18.50;99.90;;;;;;5073847;28;20494;-84
2023/09/23 04:09:07;;;;;;;1.43;1.30;;;18.40;99.90;;;;;;5073231;28;20458;-84
2023/09/23 04:11:35;;;;;;;1.40;1.30;;;18.20;99.90;;;;;;5074135;28;20819;-85
2023/09/23 04:14:02;;;;;;;3.83;1.83;;;18.20;99.90;;;;;;5061909;28;20466;-83
2023/09/23 04:16:30;;;;;;;1.60;1.50;;;18.10;99.90;;;;;;5071118;28;20466;-83
2023/09/23 04:18:57;;;;;;;2.10;1.80;;;17.90;99.90;;;;;;5073117;28;20972;-84
2023/09/23 04:21:40;;;;;;;1.67;1.30;;;17.90;99.90;;;;;;5073519;28;20476;-85
2023/09/23 04:24:09;;;;;;;1.30;1.20;;;17.80;99.90;;;;;;5061039;28;20738;-84
2023/09/23 04:26:36;;;;;;;1.87;1.50;;;17.70;99.90;;;;;;5073016;28;20485;-85
2023/09/23 04:29:07;;;;;;;2.47;1.67;;;17.60;99.90;;;;;;5063780;28;20485;-83
2023/09/23 04:32:06;;;;;;;1.97;1.70;;;17.60;99.90;;;;;;5060752;28;20502;-84
2023/09/23 04:34:35;;;;;;;1.53;1.43;;;17.50;99.90;;;;;;5072920;28;20489;-83
2023/09/23 04:37:05;;;;;;;4.37;1.47;;;17.50;99.90;;;;;;5073376;28;20466;-84
2023/09/23 04:39:36;;;;;;;1.83;1.50;;;17.40;99.90;;;;;;5063511;28;20489;-83
2023/09/23 04:42:04;;;;;;;1.90;1.60;;;17.40;99.90;;;;;;5073662;28;20534;-83
2023/09/23 04:44:34;;;;;;;2.73;1.60;;;17.30;99.90;;;;;;5072660;28;20470;-83
2023/09/23 04:47:22;;;;;;;3.47;2.27;;;17.30;99.90;;;;;;5073047;28;21264;-84
2023/09/23 04:49:49;;;;;;;1.80;1.50;;;17.20;99.90;;;;;;5073197;28;20462;-83
2023/09/23 04:52:16;;;;;;;3.10;1.47;;;17.20;99.90;;;;;;5073410;28;20546;-84
2023/09/23 04:54:54;;;;;;;1.60;1.50;;;17.20;99.90;;;;;;5072155;28;20502;-84
2023/09/23 04:57:21;;;;;;;1.70;1.53;;;17.10;99.90;;;;;;5073188;28;20477;-85
2023/09/23 04:59:52;;;;;;;1.97;1.33;;;17.10;99.90;;;;;;5062806;28;21353;-84
2023/09/23 05:02:19;;;;;;;2.33;1.33;;;17.10;99.90;;;;;;5072536;28;20521;-84
2023/09/23 05:04:46;;;;;;;1.40;1.27;;;17.10;99.90;;;;;;5072264;28;20808;-82
2023/09/23 05:07:13;;;;;;;2.43;1.50;;;17.00;99.90;;;;;;5064403;28;20470;-84
2023/09/23 05:09:41;;;;;;;1.60;1.50;;;17.00;99.90;;;;;;5072311;28;20470;-83
2023/09/23 05:12:10;;;;;;;1.90;1.30;;;17.00;99.90;;;;;;5073623;28;20457;-83
2023/09/23 05:14:37;;;;;;;2.10;1.40;;;17.00;99.90;;;;;;5072784;28;20462;-84
2023/09/23 05:17:05;;;;;;;1.30;1.20;;;17.00;99.90;;;;;;5072763;28;20856;-84
2023/09/23 05:19:32;;;;;;;1.30;1.10;;;17.00;99.90;;;;;;5061879;28;20494;-84
2023/09/23 05:21:59;;;;;;;1.57;1.37;;;16.90;99.90;;;;;;5073743;28;20943;-84
2023/09/23 05:24:27;;;;;;;2.70;1.60;;;16.90;99.90;;;;;;5118387;22;20471;-85
2023/09/23 05:26:55;;;;;;;2.43;2.10;;;16.80;99.90;;;;;;5044217;28;20480;-85
2023/09/23 05:29:27;;;;;;;1.63;1.53;;;16.80;99.90;;;;;;5048305;28;20805;-85
2023/09/23 05:32:30;;;;;;;2.47;2.17;;;16.80;99.90;;;;;;5059962;28;20482;-85
2023/09/23 05:35:00;;;;;;;1.97;1.20;;;16.80;99.90;;;;;;5060295;28;20494;-86
2023/09/23 05:37:27;;;;;;;1.73;1.23;;;16.80;99.90;;;;;;5046119;28;20537;-84
2023/09/23 05:39:54;;;;;;;1.20;1.10;;;16.80;99.90;;;;;;5060183;28;20516;-84
2023/09/23 05:42:24;;;;;;;2.00;1.37;;;16.80;99.90;;;;;;5049394;28;20467;-85
2023/09/23 05:44:55;;;;;;;1.53;1.40;;;16.70;99.90;;;;;;5058462;28;20475;-85
2023/09/23 05:47:23;;;;;;;2.70;1.60;;;16.70;99.90;;;;;;5058995;28;20972;-85
2023/09/23 05:49:52;;;;;;;1.40;1.30;;;16.80;99.90;;;;;;5059276;28;20475;-85
2023/09/23 05:52:24;;;;;;;3.43;2.90;;;16.70;99.90;;;;;;5047541;28;20501;-84
2023/09/23 05:54:51;;;;;;;3.20;2.23;;;16.80;99.90;;;;;;5058655;28;20486;-84
2023/09/23 05:57:18;;;;;;;2.83;2.43;;;16.80;99.90;;;;;;5047683;28;20483;-85
2023/09/23 05:59:46;;;;;;;3.33;2.23;;;16.80;99.90;;;;;;5058300;28;20455;-85
2023/09/23 06:02:15;;;;;;;1.80;1.70;;;16.70;99.90;;;;;;5059217;28;20524;-87
2023/09/23 06:04:45;;;;;;;1.70;1.60;;;16.80;99.90;;;;;;5046573;28;20501;-85
2023/09/23 06:07:13;;;;;;;2.10;1.90;;;16.70;99.90;;;;;;5050638;28;20466;-86
2023/09/23 06:09:44;;;;;;;2.30;2.10;;;16.80;99.90;;;;;;5058400;28;20497;-84
2023/09/23 06:12:12;;;;;;;3.23;2.37;;;16.70;99.90;;;;;;5048790;28;20467;-86
2023/09/23 06:14:38;;;;;;;3.93;3.10;;;16.70;99.90;;;;;;5059177;28;20478;-86
2023/09/23 06:17:05;;;;;;;2.40;1.77;;;16.80;99.90;;;;;;5050610;28;20475;-84
2023/09/23 06:19:46;;;;;;;5.90;1.70;;;16.80;99.90;;;;;;5058724;28;20466;-85
2023/09/23 06:22:17;;;;;;;1.80;1.53;;;16.80;99.90;;;;;;5058958;28;20469;-84
2023/09/23 06:24:49;;;;;;;4.00;1.60;;;16.80;99.90;;;;;;5059425;28;20467;-86
2023/09/23 06:27:31;;;;;;;2.70;1.40;;;16.80;99.90;;;;;;5058392;28;20798;-85
2023/09/23 06:30:02;;;;;;;1.83;1.40;;;16.80;99.90;;;;;;5049552;28;20470;-85
2023/09/23 06:32:38;;;;;;;1.70;1.30;;;16.90;99.90;;;;;;5050760;28;20494;-85
2023/09/23 06:35:11;;;;;;;1.20;1.10;;;16.90;99.90;;;;;;5049559;28;20498;-86
2023/09/23 06:37:41;;;;;;;1.20;1.10;;;17.00;99.90;;;;;;5057402;28;20459;-86
2023/09/23 06:40:08;;;;;;;2.90;2.50;;;17.00;99.90;;;;;;5046457;28;20807;-86
2023/09/23 06:42:36;;;;;;;1.90;1.80;;;16.90;99.90;;;;;;5045636;28;20953;-86
2023/09/23 06:45:06;;;;;;;3.67;1.50;;;17.00;99.90;;;;;;5054935;28;20475;-86
2023/09/23 06:47:35;;;;;;;1.00;0.90;;;17.00;99.90;;;;;;5053419;28;20557;-86
2023/09/23 06:50:19;;;;;;;1.63;1.50;;;17.00;99.90;;;;;;5055254;28;20521;-86
2023/09/23 06:52:48;;;;;;;2.70;1.50;;;17.00;99.90;;;;;;5052697;28;20474;-85
2023/09/23 06:55:15;;;;;;;1.70;1.13;;;17.00;99.90;;;;;;5054794;28;20463;-85
2023/09/23 06:57:48;;;;;;;1.60;1.30;;;17.10;99.90;;;;;;5055569;28;20471;-85
2023/09/23 07:00:16;;;;;;;1.40;1.20;;;17.10;99.90;;;;;;5043393;28;20455;-83
2023/09/23 07:02:43;;;;;;;1.40;1.10;;;17.10;99.90;;;;;;5055734;28;20554;-85
2023/09/23 07:05:10;;;;;;;1.83;1.40;;;17.20;99.90;;;;;;5045870;28;20478;-85
2023/09/23 07:07:43;;;;;;;1.63;1.17;;;17.20;99.90;;;;;;5054799;28;20980;-85
2023/09/23 07:10:14;;;;;;;1.30;1.20;;;17.10;99.90;;;;;;5055019;28;20532;-84
2023/09/23 07:12:44;;;;;;;1.33;1.20;;;17.20;99.90;;;;;;5045213;28;21080;-85
2023/09/23 07:15:16;;;;;;;2.90;1.10;;;17.30;99.90;;;;;;5045424;28;20467;-83
2023/09/23 07:17:43;;;;;;;1.93;1.10;;;17.30;99.90;;;;;;5055911;28;20908;-86
2023/09/23 07:20:27;;;;;;;1.63;1.53;;;17.40;99.90;;;;;;5042730;28;20471;-84
2023/09/23 07:22:54;;;;;;;2.37;1.10;;;17.40;99.90;;;;;;5032386;28;20528;-84
2023/09/23 07:25:28;;;;;;;2.60;1.17;;;17.40;99.90;;;;;;5041030;28;20558;-85
2023/09/23 07:27:55;;;;;;;1.47;1.27;;;17.40;99.90;;;;;;5051918;28;20549;-85
2023/09/23 07:30:25;;;;;;;1.70;1.07;;;17.40;99.90;;;;;;5056618;28;20467;-83
2023/09/23 07:32:55;;;;;;;1.20;1.10;;;17.50;99.90;;;;;;5055292;28;20764;-85
2023/09/23 07:38:13;;;;;;;2.10;1.17;;;17.60;99.90;;;;;;5034565;28;20464;-83
2023/09/23 07:40:44;;;;;;;1.10;0.97;;;17.60;99.90;;;;;;5045002;28;20501;-84
2023/09/23 07:43:13;;;;;;;3.30;1.10;;;17.70;99.90;;;;;;5055704;28;20559;-83
2023/09/23 07:45:40;;;;;;;1.37;1.13;;;17.80;99.90;;;;;;5044673;28;20503;-85
2023/09/23 07:48:09;;;;;;;1.20;1.10;;;17.70;99.90;;;;;;5055894;28;20806;-85
2023/09/23 07:50:36;;;;;;;2.20;1.47;;;17.80;99.90;;;;;;5054450;28;20467;-84
2023/09/23 07:53:03;;;;;;;1.87;1.43;;;17.80;99.90;;;;;;5054989;28;20483;-85
2023/09/23 07:55:30;;;;;;;1.90;1.70;;;17.90;99.90;;;;;;5044506;28;20481;-85
2023/09/23 07:58:00;;;;;;;1.60;1.50;;;17.90;99.90;;;;;;5054830;28;20470;-85
2023/09/23 08:00:27;;;;;;;2.07;1.67;;;17.90;99.90;;;;;;5054157;28;20525;-83
2023/09/23 08:02:54;;;;;;;1.77;1.20;;;17.90;99.90;;;;;;5053896;28;20532;-85
2023/09/23 08:05:23;;;;;;;1.60;1.40;;;18.00;99.90;;;;;;5054256;28;20561;-85
2023/09/23 08:07:54;;;;;;;1.60;1.50;;;18.10;99.90;;;;;;5053693;28;20495;-86
2023/09/23 08:10:27;;;;;;;3.03;1.40;;;18.10;99.90;;;;;;5055174;28;20490;-84
2023/09/23 08:13:08;;;;;;;1.40;1.30;;;18.10;99.90;;;;;;5054822;28;20894;-85
2023/09/23 08:15:51;;;;;;;1.40;1.30;;;18.20;99.90;;;;;;5042744;28;20470;-85
2023/09/23 08:18:18;;;;;;;1.17;1.07;;;18.20;99.90;;;;;;5041492;28;20467;-85
2023/09/23 08:20:46;;;;;;;2.93;1.60;;;18.20;99.90;;;;;;5052963;28;20522;-84
2023/09/23 08:23:15;;;;;;;2.17;1.73;;;18.10;99.90;;;;;;5054565;28;20478;-86
2023/09/23 08:25:45;;;;;;;1.60;1.50;;;18.10;99.90;;;;;;5053741;28;20477;-84
2023/09/23 08:28:14;;;;;;;2.20;1.20;;;18.00;99.90;;;;;;5043981;28;20471;-86
2023/09/23 08:30:44;;;;;;;2.40;1.93;;;18.00;99.90;;;;;;5043256;28;20499;-84
2023/09/23 08:33:12;;;;;;;1.80;1.60;;;18.10;99.90;;;;;;5046216;28;20546;-85
2023/09/23 08:35:41;;;;;;;1.80;1.50;;;18.20;99.90;;;;;;5052531;28;20505;-83
2023/09/23 08:38:11;;;;;;;3.53;1.93;;;18.20;99.90;;;;;;5053767;28;20972;-85
2023/09/23 08:40:39;;;;;;;3.17;2.40;;;18.30;99.90;;;;;;5041014;28;20953;-85
2023/09/23 08:43:08;;;;;;;2.70;1.70;;;18.60;99.90;;;;;;5053314;28;20467;-84
2023/09/23 08:45:43;;;;;;;3.57;3.27;;;19.00;99.90;;;;;;5052818;28;20482;-84
2023/09/23 08:48:11;;;;;;;24.50;22.00;;;19.40;99.90;;;;;;5042615;28;20528;-85
2023/09/23 08:50:43;;;;;;;18.70;16.37;;;19.70;99.90;;;;;;5048289;28;20531;-86
2023/09/23 08:53:14;;;;;;;29.03;25.87;;;19.90;99.90;;;;;;5045086;28;20486;-84
2023/09/23 08:55:52;;;;;;;16.73;15.00;;;20.10;99.90;;;;;;5043221;28;20455;-84
2023/09/23 08:58:19;;;;;;;26.07;23.43;;;20.30;99.90;;;;;;5052878;28;20463;-86
2023/09/23 09:00:52;;;;;;;24.17;21.67;;;20.50;99.90;;;;;;5039141;28;20471;-85
2023/09/23 09:03:23;;;;;;;16.97;15.13;;;20.60;99.90;;;;;;5047176;28;20472;-85
2023/09/23 09:05:50;;;;;;;4.47;3.10;;;20.70;99.90;;;;;;5033223;28;20456;-85
2023/09/23 09:08:20;;;;;;;3.13;1.60;;;20.80;99.90;;;;;;5032482;28;20468;-84
2023/09/23 09:10:49;;;;;;;2.90;2.13;;;20.80;99.90;;;;;;5031761;28;20472;-85
2023/09/23 09:13:17;;;;;;;4.33;2.60;;;20.80;99.90;;;;;;5034002;28;20778;-85
2023/09/23 09:18:32;;;;;;;2.20;2.03;;;20.70;99.90;;;;;;5025956;28;20468;-83
2023/09/23 09:21:00;;;;;;;1.63;1.40;;;20.70;99.90;;;;;;5018540;28;20472;-84
2023/09/23 09:26:32;;;;;;;3.10;1.60;;;20.60;99.90;;;;;;5021054;28;20807;-84
2023/09/23 09:29:02;;;;;;;2.87;1.80;;;20.50;99.90;;;;;;5034460;28;20475;-85
2023/09/23 09:31:33;;;;;;;2.00;1.40;;;20.50;99.90;;;;;;5012470;28;20468;-85
2023/09/23 09:34:07;;;;;;;1.30;1.20;;;20.40;99.90;;;;;;5047392;28;21045;-86
2023/09/23 09:36:38;;;;;;;2.03;1.50;;;20.30;99.90;;;;;;5021134;28;20464;-85
2023/09/23 09:39:12;;;;;;;3.33;1.47;;;20.20;99.90;;;;;;5031784;28;20460;-85
2023/09/23 09:41:48;;;;;;;1.73;1.40;;;20.10;99.90;;;;;;5031687;28;20874;-85
2023/09/23 09:44:22;;;;;;;4.30;2.50;;;20.10;99.90;;;;;;5032850;28;20476;-84
2023/09/23 09:46:51;;;;;;;2.50;1.87;;;20.10;99.90;;;;;;5032190;28;20479;-84
2023/09/23 09:49:22;;;;;;;2.10;2.00;;;20.10;99.90;;;;;;5033840;28;20492;-84
2023/09/23 09:51:53;;;;;;;1.97;1.87;;;20.10;99.90;;;;;;5021206;28;20515;-84
2023/09/23 09:54:27;;;;;;;3.37;3.07;;;20.20;99.90;;;;;;5031827;28;20472;-84
2023/09/23 09:56:56;;;;;;;2.77;2.53;;;20.20;99.90;;;;;;5032255;28;20491;-84
2023/09/23 09:59:26;;;;;;;4.70;3.67;;;20.20;99.90;;;;;;5022123;28;20531;-84
2023/09/23 10:02:00;;;;;;;3.70;3.40;;;20.20;99.90;;;;;;5031437;28;20472;-86
2023/09/23 10:04:33;;;;;;;4.90;4.40;;;20.30;99.90;;;;;;5032689;28;20479;-85
2023/09/23 10:13:42;;;;;;;2.60;2.40;;;20.30;99.90;;;;;;4972445;28;20523;-85
2023/09/23 10:16:17;;;;;;;1.87;1.73;;;20.30;99.90;;;;;;5025774;28;20571;-84
2023/09/23 10:18:44;;;;;;;2.30;2.10;;;20.20;99.90;;;;;;5036097;28;20547;-84
2023/09/23 10:21:23;;;;;;;3.33;2.80;;;20.20;99.90;;;;;;5036016;28;20560;-83
2023/09/23 10:24:02;;;;;;;;;;;;;;;;;;;;;
2023/09/23 10:26:45;;;;;;;2.03;1.90;;;20.10;99.90;;;;;;5036016;28;20460;-86
2023/09/23 10:30:04;;;;;;;2.93;2.70;;;20.10;99.90;;;;;;5029622;28;20467;-86
2023/09/23 10:32:37;;;;;;;2.63;2.40;;;20.10;99.90;;;;;;5031361;28;20602;-86
2023/09/23 10:35:07;;;;;;;3.30;2.77;;;20.10;99.90;;;;;;5036778;28;20499;-84
2023/09/23 10:37:41;;;;;;;2.30;2.07;;;20.00;99.90;;;;;;5026667;28;20471;-86
2023/09/23 10:40:18;;;;;;;1.80;1.70;;;20.00;99.90;;;;;;5025445;28;20484;-87
2023/09/23 10:42:49;;;;;;;2.53;2.00;;;20.00;99.90;;;;;;5023382;28;20468;-85
2023/09/23 10:45:49;;;;;;;2.00;1.90;;;20.10;99.90;;;;;;5035124;28;20464;-86
2023/09/23 10:48:17;;;;;;;2.07;1.97;;;20.10;99.90;;;;;;5035621;28;20470;-84
2023/09/23 10:50:45;;;;;;;2.70;2.30;;;20.10;99.90;;;;;;5025077;28;20496;-84
2023/09/23 10:53:23;;;;;;;2.80;1.70;;;20.10;99.90;;;;;;5036382;28;20444;-85
2023/09/23 10:56:01;;;;;;;2.30;2.20;;;20.00;99.90;;;;;;5026739;28;20533;-86
2023/09/23 10:58:43;;;;;;;2.20;2.10;;;20.00;99.90;;;;;;5037765;28;20543;-85
2023/09/23 11:01:12;;;;;;;3.00;2.70;;;20.00;99.90;;;;;;5037703;28;20546;-86
2023/09/23 11:03:40;;;;;;;2.60;2.40;;;19.90;99.90;;;;;;5025359;28;20525;-85
2023/09/23 11:06:18;;;;;;;2.40;2.20;;;19.90;99.90;;;;;;5035454;28;20487;-86
2023/09/23 11:08:47;;;;;;;2.43;2.23;;;19.90;99.90;;;;;;5035092;28;20525;-86
2023/09/23 11:11:15;;;;;;;2.10;1.90;;;19.90;99.90;;;;;;5035951;28;20525;-85
2023/09/23 11:13:50;;;;;;;4.80;2.20;;;19.90;99.90;;;;;;5024715;28;20473;-87
2023/09/23 11:16:18;;;;;;;4.23;2.77;;;19.90;99.90;;;;;;5035977;28;20471;-85
2023/09/23 11:18:52;;;;;;;5.50;3.33;;;19.90;99.90;;;;;;5023882;28;20563;-86
2023/09/23 11:21:20;;;;;;;5.20;2.37;;;19.90;99.90;;;;;;5008206;28;20456;-84
2023/09/23 11:23:56;;;;;;;3.30;2.30;;;19.90;99.90;;;;;;5035266;28;20559;-84
2023/09/23 11:26:30;;;;;;;2.60;2.07;;;19.90;99.90;;;;;;5023701;28;20506;-85
2023/09/23 11:28:58;;;;;;;3.17;1.97;;;19.90;99.90;;;;;;5024044;28;21017;-85
2023/09/23 11:31:27;;;;;;;2.90;2.20;;;19.90;99.90;;;;;;5025232;28;20471;-85
2023/09/23 11:34:22;;;;;;;5.77;2.37;;;19.90;99.90;;;;;;5035269;28;20555;-85
2023/09/23 11:36:49;;;;;;;1.93;1.50;;;19.90;99.90;;;;;;5024128;28;20492;-84
2023/09/23 11:42:16;;;;;;;1.30;1.20;;;19.90;99.90;;;;;;5017108;28;20460;-85
2023/09/23 11:45:03;;;;;;;3.60;1.77;;;20.00;99.90;;;;;;5013909;28;20483;-84
2023/09/23 11:47:48;;;;;;;2.50;1.80;;;20.10;99.90;;;;;;5022266;28;20956;-85
2023/09/23 11:50:17;;;;;;;1.60;1.37;;;20.10;99.90;;;;;;5035447;28;20503;-85
2023/09/23 11:53:03;;;;;;;1.33;1.23;;;20.10;99.90;;;;;;5035302;28;20464;-84
2023/09/23 11:55:37;;;;;;;4.07;2.97;;;20.10;99.90;;;;;;5025273;28;20554;-86
2023/09/23 11:58:05;;;;;;;4.60;3.53;;;20.10;99.90;;;;;;5020560;28;20495;-86
2023/09/23 12:00:41;;;;;;;3.10;2.80;;;20.10;99.90;;;;;;5012678;28;20476;-86
2023/09/23 12:03:11;;;;;;;3.07;2.13;;;20.10;99.90;;;;;;5038469;28;20479;-85
2023/09/23 12:08:46;;;;;;;2.00;1.90;;;20.10;99.90;;;;;;5019883;28;21080;-84
2023/09/23 12:11:21;;;;;;;2.17;1.97;;;20.00;99.90;;;;;;5024816;28;20468;-84
2023/09/23 12:13:52;;;;;;;2.27;2.07;;;20.00;99.90;;;;;;5015454;28;20559;-86
2023/09/23 12:16:19;;;;;;;2.90;2.70;;;20.00;99.90;;;;;;5022181;28;20483;-86
2023/09/23 12:19:18;;;;;;;2.60;2.40;;;20.00;99.90;;;;;;5019719;28;20505;-85
2023/09/23 12:22:16;;;;;;;1.67;1.57;;;20.00;99.90;;;;;;5028955;28;20851;-84
2023/09/23 12:24:45;;;;;;;2.00;1.80;;;19.90;99.90;;;;;;5023173;28;20467;-85
2023/09/23 12:30:03;;;;;;;7.60;5.93;;;19.90;99.90;;;;;;5030772;28;20553;-84
2023/09/23 12:32:31;;;;;;;3.90;3.33;;;19.90;99.90;;;;;;5019379;28;20468;-84
2023/09/23 12:35:08;;;;;;;3.37;2.77;;;19.90;99.90;;;;;;5032235;28;20467;-84
2023/09/23 12:37:58;;;;;;;2.50;2.30;;;19.90;99.90;;;;;;5031005;28;20966;-84
2023/09/23 12:40:29;;;;;;;7.10;5.23;;;20.00;99.90;;;;;;5033201;28;20460;-85
2023/09/23 12:46:17;;;;;;;5.80;2.17;;;20.00;99.90;;;;;;5033773;28;20502;-86
2023/09/23 12:48:44;;;;;;;3.10;1.67;;;20.00;99.90;;;;;;5019926;28;20490;-85
2023/09/23 12:51:15;;;;;;;2.27;1.30;;;20.00;99.90;;;;;;5033248;28;20459;-86
2023/09/23 12:53:43;;;;;;;1.43;1.33;;;19.90;99.90;;;;;;5032427;28;20882;-86
2023/09/23 12:56:22;;;;;;;1.50;1.40;;;20.00;99.90;;;;;;5033836;28;20500;-86
2023/09/23 12:59:08;;;;;;;;;;;;;;;;;;;;;
2023/09/23 13:01:43;;;;;;;5.97;5.37;;;20.10;99.90;;;;;;5032406;28;20976;-85
2023/09/23 13:04:18;;;;;;;6.27;4.00;;;20.10;99.90;;;;;;5032237;28;20468;-84
2023/09/23 13:06:52;;;;;;;2.60;2.40;;;20.10;99.90;;;;;;5033307;28;20490;-85
2023/09/23 13:09:21;;;;;;;2.40;1.50;;;20.20;99.90;;;;;;5033123;28;20475;-84
2023/09/23 13:14:46;;;;;;;1.70;1.30;;;20.20;99.90;;;;;;5024101;28;20454;-84
2023/09/23 13:17:13;;;;;;;2.27;1.90;;;20.20;99.90;;;;;;5032693;28;20528;-83
2023/09/23 13:19:47;;;;;;;1.93;1.67;;;20.30;99.90;;;;;;5022492;28;20527;-84
2023/09/23 13:22:18;;;;;;;1.67;1.40;;;20.30;99.90;;;;;;5031564;28;20466;-86
2023/09/23 13:29:24;;;;;;;;;;;;;;;;;;;;;
2023/09/23 13:32:18;;;;;;;2.13;1.93;;;20.50;99.90;;;;;;5023634;28;20472;-85
2023/09/23 13:34:45;;;;;;;2.20;1.87;;;20.50;99.90;;;;;;5023349;28;20614;-85
2023/09/23 13:37:12;;;;;;;2.00;1.87;;;20.50;99.90;;;;;;5032501;28;20468;-84
2023/09/23 13:39:41;;;;;;;1.70;1.57;;;20.50;99.90;;;;;;5022116;28;20545;-84
2023/09/23 13:45:36;;;;;;;1.63;1.53;;;20.50;99.90;;;;;;5025782;28;20452;-85
2023/09/23 13:48:05;;;;;;;1.70;1.60;;;20.50;99.90;;;;;;5036053;28;20859;-85
2023/09/23 13:50:36;;;;;;;2.37;1.30;;;20.50;99.90;;;;;;5017252;28;20823;-83